createdAt,value
2018-09-10T00:01:03.526Z,1.80
2018-09-10T00:05:47.475Z,1.73
2018-09-10T00:10:31.758Z,2.20
2018-09-10T00:15:15.558Z,1.90
2018-09-10T00:19:59.553Z,1.73
2018-09-10T00:24:43.290Z,1.80
2018-09-10T00:29:27.724Z,1.90
2018-09-10T00:34:11.850Z,1.60
2018-09-10T00:38:55.737Z,1.50
2018-09-10T00:43:39.945Z,1.50
2018-09-10T00:48:23.808Z,1.80
2018-09-10T00:53:07.872Z,2.07
2018-09-10T00:57:51.701Z,1.80
2018-09-10T01:02:35.586Z,2.03
2018-09-10T01:07:19.588Z,2.00
2018-09-10T01:12:03.576Z,2.13
2018-09-10T01:16:47.977Z,2.20
2018-09-10T01:21:31.897Z,2.37
2018-09-10T01:26:15.865Z,1.70
2018-09-10T01:30:59.815Z,1.97
2018-09-10T01:35:43.746Z,2.10
2018-09-10T01:40:27.891Z,2.03
2018-09-10T01:45:11.687Z,1.93
2018-09-10T01:49:55.571Z,2.20
2018-09-10T01:54:39.295Z,1.90
2018-09-10T01:59:23.901Z,1.77
2018-09-10T02:04:07.591Z,1.80
2018-09-10T02:08:51.301Z,1.90
2018-09-10T02:13:35.380Z,1.87
2018-09-10T02:18:20.146Z,2.07
2018-09-10T02:23:03.879Z,1.77
2018-09-10T02:27:47.563Z,2.00
2018-09-10T02:32:31.824Z,1.60
2018-09-10T02:37:15.619Z,2.00
2018-09-10T02:42:00.009Z,2.20
2018-09-10T02:46:43.787Z,2.20
2018-09-10T02:51:27.857Z,1.90
2018-09-10T02:56:11.612Z,2.00
2018-09-10T03:00:55.342Z,2.20
2018-09-10T03:05:39.146Z,1.90
2018-09-10T03:10:23.240Z,1.90
2018-09-10T03:15:07.120Z,2.10
2018-09-10T03:19:51.043Z,2.40
2018-09-10T03:24:34.976Z,2.30
2018-09-10T03:29:18.876Z,1.70
2018-09-10T03:34:02.616Z,2.00
2018-09-10T03:38:46.235Z,2.30
2018-09-10T03:43:30.024Z,2.20
2018-09-10T03:48:13.779Z,2.07
2018-09-10T03:52:58.408Z,2.30
2018-09-10T03:57:42.300Z,2.10
2018-09-10T04:02:26.100Z,2.37
2018-09-10T04:07:09.724Z,1.93
2018-09-10T04:11:53.452Z,2.00
2018-09-10T04:16:37.117Z,2.03
2018-09-10T04:21:21.008Z,1.80
2018-09-10T04:26:04.730Z,2.10
2018-09-10T04:30:49.161Z,2.10
2018-09-10T04:35:34.723Z,1.87
2018-09-10T04:40:18.620Z,2.40
2018-09-10T04:45:02.764Z,2.30
2018-09-10T04:49:46.804Z,1.90
2018-09-10T04:54:30.902Z,1.90
2018-09-10T04:59:15.669Z,2.47
2018-09-10T05:03:59.966Z,1.90
2018-09-10T05:08:43.799Z,1.73
2018-09-10T05:13:27.953Z,1.87
2018-09-10T05:18:11.662Z,2.20
2018-09-10T05:22:55.416Z,1.73
2018-09-10T05:27:39.210Z,1.90
2018-09-10T05:32:23.246Z,1.30
2018-09-10T05:37:07.066Z,1.83
2018-09-10T05:41:50.999Z,1.60
2018-09-10T05:46:35.082Z,1.83
2018-09-10T05:51:18.788Z,2.00
2018-09-10T05:56:02.548Z,1.77
2018-09-10T06:00:46.586Z,1.80
2018-09-10T06:05:30.390Z,1.40
2018-09-10T06:10:14.075Z,1.70
2018-09-10T06:14:57.820Z,1.50
2018-09-10T06:19:41.690Z,1.90
2018-09-10T06:24:25.972Z,1.83
2018-09-10T06:29:10.319Z,1.70
2018-09-10T06:33:55.728Z,1.70
2018-09-10T06:38:40.037Z,1.70
2018-09-10T06:43:23.860Z,2.10
2018-09-10T06:48:07.828Z,2.00
2018-09-10T06:52:51.715Z,1.90
2018-09-10T06:57:35.764Z,1.80
2018-09-10T07:02:19.812Z,1.70
2018-09-10T07:07:03.542Z,1.60
2018-09-10T07:11:47.447Z,1.90
2018-09-10T07:16:31.456Z,1.70
2018-09-10T07:21:15.413Z,1.70
2018-09-10T07:25:59.813Z,1.57
2018-09-10T07:30:43.959Z,1.77
2018-09-10T07:35:28.521Z,1.30
2018-09-10T07:40:14.861Z,1.57
2018-09-10T07:44:59.079Z,1.50
2018-09-10T07:49:43.262Z,1.03
2018-09-10T07:54:27.169Z,1.60
2018-09-10T07:59:10.886Z,1.80
2018-09-10T08:03:54.669Z,2.23
2018-09-10T08:08:38.498Z,1.40
2018-09-10T08:13:22.440Z,1.30
2018-09-10T08:18:07.168Z,1.30
2018-09-10T08:22:50.987Z,1.10
2018-09-10T08:27:34.804Z,1.27
2018-09-10T08:32:18.709Z,1.20
2018-09-10T08:37:03.207Z,1.30
2018-09-10T08:41:46.988Z,1.10
2018-09-10T08:46:31.025Z,1.20
2018-09-10T08:51:14.935Z,1.10
2018-09-10T08:55:58.925Z,1.30
2018-09-10T09:00:42.582Z,1.50
2018-09-10T09:05:26.454Z,1.00
2018-09-10T09:10:10.322Z,1.40
2018-09-10T09:14:54.164Z,1.20
2018-09-10T09:19:37.979Z,1.40
2018-09-10T09:24:21.929Z,1.17
2018-09-10T09:29:05.761Z,1.17
2018-09-10T09:33:49.619Z,1.07
2018-09-10T09:38:40.849Z,1.37
2018-09-10T09:45:37.240Z,1.00
2018-09-10T09:50:21.722Z,0.90
2018-09-10T09:55:05.831Z,1.00
2018-09-10T09:59:49.895Z,1.20
2018-09-10T10:04:33.962Z,1.10
2018-09-10T10:09:17.818Z,1.10
2018-09-10T10:14:03.373Z,1.20
2018-09-10T10:18:47.356Z,1.03
2018-09-10T10:23:31.149Z,1.13
2018-09-10T10:28:15.167Z,1.40
2018-09-10T10:32:59.009Z,1.20
2018-09-10T10:37:42.841Z,1.13
2018-09-10T10:42:26.573Z,1.10
2018-09-10T10:47:10.523Z,1.40
2018-09-10T10:51:54.462Z,1.40
2018-09-10T10:56:39.432Z,1.37
2018-09-10T11:01:27.620Z,1.43
2018-09-10T11:06:11.678Z,1.40
2018-09-10T11:10:55.429Z,1.47
2018-09-10T11:15:39.157Z,1.20
2018-09-10T11:20:23.004Z,1.20
2018-09-10T11:25:07.124Z,1.57
2018-09-10T11:29:51.895Z,1.50
2018-09-10T11:34:35.698Z,1.47
2018-09-10T11:39:19.685Z,1.15
2018-09-10T11:44:03.968Z,1.27
2018-09-10T11:48:48.739Z,1.20
2018-09-10T11:53:34.370Z,1.13
2018-09-10T11:58:18.188Z,1.20
2018-09-10T12:03:02.220Z,1.25
2018-09-10T12:07:46.160Z,1.20
2018-09-10T12:12:29.872Z,1.23
2018-09-10T12:17:14.951Z,1.25
2018-09-10T12:21:58.635Z,1.02
2018-09-10T12:26:42.521Z,1.10
2018-09-10T12:31:26.438Z,1.00
2018-09-10T12:36:10.386Z,1.15
2018-09-10T12:40:54.122Z,1.35
2018-09-10T12:45:38.196Z,1.20
2018-09-10T12:50:22.872Z,1.20
2018-09-10T12:55:07.097Z,1.42
2018-09-10T12:59:51.145Z,1.10
2018-09-10T13:04:50.294Z,1.25
2018-09-10T13:09:34.420Z,1.10
2018-09-10T13:14:19.440Z,1.27
2018-09-10T13:19:03.229Z,1.33
2018-09-10T13:23:47.121Z,1.20
2018-09-10T13:28:30.876Z,1.20
2018-09-10T13:33:17.579Z,1.00
2018-09-10T13:38:02.976Z,1.07
2018-09-10T13:42:52.817Z,1.20
2018-09-10T13:47:36.939Z,1.50
2018-09-10T13:52:20.718Z,1.20
2018-09-10T13:57:04.689Z,1.10
2018-09-10T14:01:48.933Z,1.30
2018-09-10T14:06:39.898Z,1.05
2018-09-10T14:11:24.253Z,1.10
2018-09-10T14:16:16.291Z,1.20
2018-09-10T14:25:57.199Z,1.50
2018-09-10T14:30:50.004Z,1.30
2018-09-10T14:35:34.364Z,1.37
2018-09-10T14:40:18.681Z,1.13
2018-09-10T14:45:02.547Z,1.40
2018-09-10T14:49:46.788Z,1.27
2018-09-10T14:54:30.768Z,1.30
2018-09-10T14:59:14.660Z,1.33
2018-09-10T15:03:58.509Z,1.10
2018-09-10T15:08:42.749Z,1.17
2018-09-10T15:13:26.592Z,1.30
2018-09-10T15:18:10.524Z,1.40
2018-09-10T15:22:54.344Z,1.57
2018-09-10T15:27:38.363Z,1.20
2018-09-10T15:32:23.660Z,1.50
2018-09-10T15:37:08.396Z,1.17
2018-09-10T15:41:52.197Z,1.30
2018-09-10T15:46:36.357Z,1.30
2018-09-10T15:51:20.510Z,1.40
2018-09-10T15:56:04.836Z,1.40
2018-09-10T16:00:49.088Z,1.33
2018-09-10T16:05:33.133Z,1.30
2018-09-10T16:15:24.761Z,1.40
2018-09-10T16:20:08.904Z,1.43
2018-09-10T16:24:52.824Z,1.30
2018-09-10T16:29:37.524Z,1.53
2018-09-10T16:34:21.684Z,1.70
2018-09-10T16:39:08.374Z,1.77
2018-09-10T16:44:08.571Z,1.70
2018-09-10T16:49:06.792Z,1.80
2018-09-10T16:53:51.488Z,1.70
2018-09-10T16:58:35.559Z,1.70
2018-09-10T17:03:19.314Z,2.07
2018-09-10T17:08:03.058Z,1.90
2018-09-10T17:12:47.066Z,2.17
2018-09-10T17:17:31.214Z,1.83
2018-09-10T17:22:20.696Z,2.20
2018-09-10T17:27:18.428Z,1.60
2018-09-10T17:32:02.737Z,2.13
2018-09-10T17:42:02.499Z,1.70
2018-09-10T17:46:56.425Z,2.47
2018-09-10T17:51:47.085Z,2.33
2018-09-10T17:56:31.757Z,2.60
2018-09-10T18:01:36.745Z,2.90
2018-09-10T18:06:21.561Z,3.13
2018-09-10T18:11:05.702Z,3.40
2018-09-10T18:15:50.393Z,4.23
2018-09-10T18:20:35.152Z,4.57
2018-09-10T18:25:19.313Z,4.43
2018-09-10T18:30:03.671Z,3.60
2018-09-10T18:41:34.086Z,2.33
2018-09-10T18:46:18.359Z,2.40
2018-09-10T18:51:15.620Z,2.70
2018-09-10T18:56:20.456Z,2.30
2018-09-10T19:01:04.590Z,2.20
2018-09-10T19:10:55.787Z,2.40
2018-09-10T19:15:40.263Z,2.43
2018-09-10T19:20:24.491Z,2.20
2018-09-10T19:25:08.675Z,2.27
2018-09-10T19:30:01.331Z,2.50
2018-09-10T19:35:07.763Z,2.40
2018-09-10T19:40:25.451Z,2.63
2018-09-10T19:45:09.938Z,2.87
2018-09-10T19:49:55.234Z,3.10
2018-09-10T19:54:40.785Z,2.27
2018-09-10T19:59:31.420Z,2.40
2018-09-10T20:04:15.924Z,2.80
2018-09-10T20:09:00.522Z,2.20
2018-09-10T20:13:44.587Z,2.33
2018-09-10T20:18:32.040Z,2.13
2018-09-10T20:23:16.262Z,2.10
2018-09-10T20:28:00.254Z,2.20
2018-09-10T20:32:44.418Z,2.13
2018-09-10T20:37:28.572Z,2.53
2018-09-10T20:42:12.878Z,2.50
2018-09-10T20:46:57.006Z,2.47
2018-09-10T20:51:41.230Z,2.40
2018-09-10T20:56:25.492Z,2.30
2018-09-10T21:01:09.524Z,2.40
2018-09-10T21:05:53.312Z,2.33
2018-09-10T21:10:37.118Z,2.27
2018-09-10T21:15:21.029Z,2.30
2018-09-10T21:20:04.920Z,2.30
2018-09-10T21:24:48.712Z,2.73
2018-09-10T21:29:32.502Z,2.90
2018-09-10T21:34:16.310Z,2.50
2018-09-10T21:39:00.064Z,2.27
2018-09-10T21:43:43.834Z,2.43
2018-09-10T21:48:27.650Z,2.50
2018-09-10T21:53:11.472Z,2.10
2018-09-10T21:57:55.288Z,2.00
2018-09-10T22:02:39.133Z,2.10
2018-09-10T22:07:23.003Z,2.30
2018-09-10T22:12:07.015Z,1.80
2018-09-10T22:16:51.692Z,1.80
2018-09-10T22:21:35.558Z,2.23
2018-09-10T22:26:19.461Z,2.07
2018-09-10T22:31:03.393Z,2.10
2018-09-10T22:35:47.168Z,1.93
2018-09-10T22:40:30.914Z,2.33
2018-09-10T22:45:14.757Z,1.90
2018-09-10T22:49:58.702Z,1.90
2018-09-10T22:54:42.649Z,2.30
2018-09-10T22:59:26.577Z,1.90
2018-09-10T23:04:10.687Z,2.10
2018-09-10T23:08:55.655Z,1.93
2018-09-10T23:13:39.309Z,1.90
2018-09-10T23:18:23.256Z,1.83
2018-09-10T23:23:07.342Z,1.70
2018-09-10T23:27:51.264Z,1.80
2018-09-10T23:32:35.122Z,2.10
2018-09-10T23:37:19.261Z,1.70
2018-09-10T23:42:03.117Z,1.83
2018-09-10T23:46:47.058Z,2.10
2018-09-10T23:51:30.796Z,2.03
2018-09-10T23:56:14.854Z,1.93
